sensor_id;sensor_type;location;lat;lon;timestamp;P1;durP1;ratioP1;P2;durP2;ratioP2
20705;SDS011;10514;49.468;11.044;2023-01-29T00:00:51;7.60;;;4.27;;
20705;SDS011;10514;49.468;11.044;2023-01-29T00:03:17;5.70;;;3.53;;
20705;SDS011;10514;49.468;11.044;2023-01-29T00:05:43;6.13;;;4.20;;
20705;SDS011;10514;49.468;11.044;2023-01-29T00:08:09;10.50;;;4.87;;
20705;SDS011;10514;49.468;11.044;2023-01-29T00:10:35;5.67;;;4.13;;
20705;SDS011;10514;49.468;11.044;2023-01-29T00:13:00;6.93;;;4.40;;
20705;SDS011;10514;49.468;11.044;2023-01-29T00:15:26;5.77;;;4.63;;
20705;SDS011;10514;49.468;11.044;2023-01-29T00:17:52;4.03;;;3.63;;
20705;SDS011;10514;49.468;11.044;2023-01-29T00:20:18;7.07;;;4.67;;
20705;SDS011;10514;49.468;11.044;2023-01-29T00:22:44;4.60;;;4.13;;
20705;SDS011;10514;49.468;11.044;2023-01-29T00:25:10;4.10;;;3.70;;
20705;SDS011;10514;49.468;11.044;2023-01-29T00:27:36;5.27;;;3.73;;
20705;SDS011;10514;49.468;11.044;2023-01-29T00:30:02;6.67;;;4.13;;
20705;SDS011;10514;49.468;11.044;2023-01-29T00:32:42;7.50;;;4.27;;
20705;SDS011;10514;49.468;11.044;2023-01-29T00:35:09;7.30;;;4.30;;
20705;SDS011;10514;49.468;11.044;2023-01-29T00:37:34;5.50;;;4.40;;
20705;SDS011;10514;49.468;11.044;2023-01-29T00:40:00;4.83;;;4.10;;
20705;SDS011;10514;49.468;11.044;2023-01-29T00:42:27;5.03;;;4.00;;
20705;SDS011;10514;49.468;11.044;2023-01-29T00:45:12;4.87;;;3.97;;
20705;SDS011;10514;49.468;11.044;2023-01-29T00:47:38;8.40;;;4.23;;
20705;SDS011;10514;49.468;11.044;2023-01-29T00:50:05;8.13;;;4.63;;
20705;SDS011;10514;49.468;11.044;2023-01-29T00:52:32;5.53;;;4.07;;
20705;SDS011;10514;49.468;11.044;2023-01-29T00:55:00;5.63;;;4.03;;
20705;SDS011;10514;49.468;11.044;2023-01-29T00:57:27;5.00;;;3.97;;
20705;SDS011;10514;49.468;11.044;2023-01-29T00:59:53;6.23;;;4.67;;
20705;SDS011;10514;49.468;11.044;2023-01-29T01:02:19;5.93;;;4.03;;
20705;SDS011;10514;49.468;11.044;2023-01-29T01:05:05;5.23;;;3.53;;
20705;SDS011;10514;49.468;11.044;2023-01-29T01:07:31;5.03;;;4.00;;
20705;SDS011;10514;49.468;11.044;2023-01-29T01:09:57;7.17;;;4.17;;
20705;SDS011;10514;49.468;11.044;2023-01-29T01:12:42;7.80;;;4.60;;
20705;SDS011;10514;49.468;11.044;2023-01-29T01:15:08;4.80;;;3.63;;
20705;SDS011;10514;49.468;11.044;2023-01-29T01:17:34;5.53;;;3.90;;
20705;SDS011;10514;49.468;11.044;2023-01-29T01:20:01;3.87;;;3.33;;
20705;SDS011;10514;49.468;11.044;2023-01-29T01:22:27;4.53;;;3.77;;
20705;SDS011;10514;49.468;11.044;2023-01-29T01:24:53;5.20;;;3.63;;
20705;SDS011;10514;49.468;11.044;2023-01-29T01:27:19;5.27;;;3.70;;
20705;SDS011;10514;49.468;11.044;2023-01-29T01:29:45;7.90;;;4.43;;
20705;SDS011;10514;49.468;11.044;2023-01-29T01:32:11;4.97;;;3.70;;
20705;SDS011;10514;49.468;11.044;2023-01-29T01:34:37;6.40;;;4.63;;
20705;SDS011;10514;49.468;11.044;2023-01-29T01:37:03;5.90;;;4.07;;
20705;SDS011;10514;49.468;11.044;2023-01-29T01:39:29;5.80;;;4.23;;
20705;SDS011;10514;49.468;11.044;2023-01-29T01:41:55;7.97;;;4.07;;
20705;SDS011;10514;49.468;11.044;2023-01-29T01:47:06;7.07;;;4.13;;
20705;SDS011;10514;49.468;11.044;2023-01-29T01:49:32;6.23;;;4.33;;
20705;SDS011;10514;49.468;11.044;2023-01-29T01:51:58;4.83;;;4.03;;
20705;SDS011;10514;49.468;11.044;2023-01-29T01:54:26;6.00;;;3.77;;
20705;SDS011;10514;49.468;11.044;2023-01-29T01:56:56;7.93;;;4.83;;
20705;SDS011;10514;49.468;11.044;2023-01-29T01:59:33;7.43;;;4.40;;
20705;SDS011;10514;49.468;11.044;2023-01-29T02:02:00;6.03;;;4.77;;
20705;SDS011;10514;49.468;11.044;2023-01-29T02:04:45;8.67;;;4.03;;
20705;SDS011;10514;49.468;11.044;2023-01-29T02:07:30;5.67;;;4.23;;
20705;SDS011;10514;49.468;11.044;2023-01-29T02:10:15;7.77;;;4.83;;
20705;SDS011;10514;49.468;11.044;2023-01-29T02:12:42;7.03;;;3.87;;
20705;SDS011;10514;49.468;11.044;2023-01-29T02:15:09;6.17;;;4.30;;
20705;SDS011;10514;49.468;11.044;2023-01-29T02:17:35;5.57;;;3.87;;
20705;SDS011;10514;49.468;11.044;2023-01-29T02:25:45;4.97;;;3.77;;
20705;SDS011;10514;49.468;11.044;2023-01-29T02:36:19;6.80;;;3.80;;
20705;SDS011;10514;49.468;11.044;2023-01-29T02:38:52;5.30;;;4.80;;
20705;SDS011;10514;49.468;11.044;2023-01-29T02:48:48;7.90;;;5.20;;
20705;SDS011;10514;49.468;11.044;2023-01-29T02:51:19;6.47;;;4.43;;
20705;SDS011;10514;49.468;11.044;2023-01-29T02:53:55;4.53;;;3.73;;
20705;SDS011;10514;49.468;11.044;2023-01-29T02:56:58;5.20;;;3.93;;
20705;SDS011;10514;49.468;11.044;2023-01-29T02:59:34;6.87;;;4.37;;
20705;SDS011;10514;49.468;11.044;2023-01-29T03:02:02;4.23;;;3.70;;
20705;SDS011;10514;49.468;11.044;2023-01-29T03:04:43;6.37;;;4.27;;
20705;SDS011;10514;49.468;11.044;2023-01-29T03:07:16;6.93;;;4.77;;
20705;SDS011;10514;49.468;11.044;2023-01-29T03:10:01;5.50;;;3.90;;
20705;SDS011;10514;49.468;11.044;2023-01-29T03:12:29;4.27;;;3.70;;
20705;SDS011;10514;49.468;11.044;2023-01-29T03:15:15;5.27;;;4.63;;
20705;SDS011;10514;49.468;11.044;2023-01-29T03:17:53;7.40;;;4.90;;
20705;SDS011;10514;49.468;11.044;2023-01-29T03:20:21;6.20;;;4.80;;
20705;SDS011;10514;49.468;11.044;2023-01-29T03:22:50;6.57;;;4.27;;
20705;SDS011;10514;49.468;11.044;2023-01-29T03:25:18;5.27;;;3.47;;
20705;SDS011;10514;49.468;11.044;2023-01-29T03:28:03;7.23;;;4.13;;
20705;SDS011;10514;49.468;11.044;2023-01-29T03:33:57;5.33;;;3.93;;
20705;SDS011;10514;49.468;11.044;2023-01-29T03:36:58;5.13;;;4.07;;
20705;SDS011;10514;49.468;11.044;2023-01-29T03:39:19;7.93;;;4.53;;
20705;SDS011;10514;49.468;11.044;2023-01-29T03:41:59;5.90;;;3.90;;
20705;SDS011;10514;49.468;11.044;2023-01-29T03:44:37;6.57;;;4.77;;
20705;SDS011;10514;49.468;11.044;2023-01-29T03:47:17;5.70;;;3.90;;
20705;SDS011;10514;49.468;11.044;2023-01-29T03:49:54;10.70;;;4.50;;
20705;SDS011;10514;49.468;11.044;2023-01-29T03:52:25;6.57;;;5.03;;
20705;SDS011;10514;49.468;11.044;2023-01-29T03:55:21;4.63;;;3.70;;
20705;SDS011;10514;49.468;11.044;2023-01-29T03:58:08;5.23;;;3.80;;
20705;SDS011;10514;49.468;11.044;2023-01-29T04:01:02;5.27;;;4.10;;
20705;SDS011;10514;49.468;11.044;2023-01-29T04:03:32;5.53;;;4.20;;
20705;SDS011;10514;49.468;11.044;2023-01-29T04:06:08;8.23;;;4.97;;
20705;SDS011;10514;49.468;11.044;2023-01-29T04:08:37;5.23;;;4.40;;
20705;SDS011;10514;49.468;11.044;2023-01-29T04:11:08;5.50;;;4.77;;
20705;SDS011;10514;49.468;11.044;2023-01-29T04:13:35;9.37;;;3.90;;
20705;SDS011;10514;49.468;11.044;2023-01-29T04:16:03;6.93;;;3.93;;
20705;SDS011;10514;49.468;11.044;2023-01-29T04:18:30;5.93;;;4.03;;
20705;SDS011;10514;49.468;11.044;2023-01-29T04:20:56;6.53;;;4.63;;
20705;SDS011;10514;49.468;11.044;2023-01-29T04:23:23;4.70;;;4.23;;
20705;SDS011;10514;49.468;11.044;2023-01-29T04:25:56;6.53;;;4.83;;
20705;SDS011;10514;49.468;11.044;2023-01-29T04:28:53;5.73;;;4.60;;
20705;SDS011;10514;49.468;11.044;2023-01-29T04:31:22;7.50;;;4.17;;
20705;SDS011;10514;49.468;11.044;2023-01-29T04:34:00;7.20;;;4.50;;
20705;SDS011;10514;49.468;11.044;2023-01-29T04:44:41;5.27;;;3.90;;
20705;SDS011;10514;49.468;11.044;2023-01-29T04:47:28;6.07;;;4.20;;
20705;SDS011;10514;49.468;11.044;2023-01-29T04:50:00;5.03;;;4.33;;
20705;SDS011;10514;49.468;11.044;2023-01-29T04:55:04;5.20;;;4.60;;
20705;SDS011;10514;49.468;11.044;2023-01-29T04:57:49;8.03;;;5.40;;
20705;SDS011;10514;49.468;11.044;2023-01-29T05:00:32;6.83;;;5.30;;
20705;SDS011;10514;49.468;11.044;2023-01-29T05:03:00;8.07;;;5.20;;
20705;SDS011;10514;49.468;11.044;2023-01-29T05:05:27;8.90;;;5.93;;
20705;SDS011;10514;49.468;11.044;2023-01-29T05:07:54;8.50;;;4.63;;
20705;SDS011;10514;49.468;11.044;2023-01-29T05:10:21;7.03;;;4.53;;
20705;SDS011;10514;49.468;11.044;2023-01-29T05:12:58;4.80;;;4.27;;
20705;SDS011;10514;49.468;11.044;2023-01-29T05:15:37;5.60;;;4.80;;
20705;SDS011;10514;49.468;11.044;2023-01-29T05:18:04;6.93;;;4.50;;
20705;SDS011;10514;49.468;11.044;2023-01-29T05:20:33;6.87;;;5.23;;
20705;SDS011;10514;49.468;11.044;2023-01-29T05:23:00;9.10;;;4.60;;
20705;SDS011;10514;49.468;11.044;2023-01-29T05:25:27;5.03;;;4.17;;
20705;SDS011;10514;49.468;11.044;2023-01-29T05:27:53;8.20;;;5.00;;
20705;SDS011;10514;49.468;11.044;2023-01-29T05:30:29;8.13;;;5.50;;
20705;SDS011;10514;49.468;11.044;2023-01-29T05:32:56;6.43;;;5.37;;
20705;SDS011;10514;49.468;11.044;2023-01-29T05:35:21;7.43;;;5.67;;
20705;SDS011;10514;49.468;11.044;2023-01-29T05:37:47;5.60;;;4.40;;
20705;SDS011;10514;49.468;11.044;2023-01-29T05:40:13;6.97;;;5.13;;
20705;SDS011;10514;49.468;11.044;2023-01-29T05:42:39;10.10;;;4.60;;
20705;SDS011;10514;49.468;11.044;2023-01-29T05:45:06;9.23;;;4.93;;
20705;SDS011;10514;49.468;11.044;2023-01-29T05:47:32;5.83;;;4.27;;
20705;SDS011;10514;49.468;11.044;2023-01-29T05:49:58;10.57;;;4.70;;
20705;SDS011;10514;49.468;11.044;2023-01-29T05:52:24;6.50;;;4.67;;
20705;SDS011;10514;49.468;11.044;2023-01-29T05:54:50;4.93;;;4.37;;
20705;SDS011;10514;49.468;11.044;2023-01-29T05:57:15;6.03;;;4.13;;
20705;SDS011;10514;49.468;11.044;2023-01-29T05:59:41;4.77;;;4.20;;
20705;SDS011;10514;49.468;11.044;2023-01-29T06:02:07;7.53;;;5.20;;
20705;SDS011;10514;49.468;11.044;2023-01-29T06:04:33;6.73;;;5.03;;
20705;SDS011;10514;49.468;11.044;2023-01-29T06:06:59;5.47;;;4.60;;
20705;SDS011;10514;49.468;11.044;2023-01-29T06:09:27;7.17;;;5.50;;
20705;SDS011;10514;49.468;11.044;2023-01-29T06:11:53;5.70;;;4.40;;
20705;SDS011;10514;49.468;11.044;2023-01-29T06:14:19;10.47;;;5.80;;
20705;SDS011;10514;49.468;11.044;2023-01-29T06:16:45;7.73;;;5.67;;
20705;SDS011;10514;49.468;11.044;2023-01-29T06:19:11;11.33;;;6.10;;
20705;SDS011;10514;49.468;11.044;2023-01-29T06:21:36;8.50;;;5.17;;
20705;SDS011;10514;49.468;11.044;2023-01-29T06:24:02;8.00;;;6.30;;
20705;SDS011;10514;49.468;11.044;2023-01-29T06:26:28;7.07;;;5.47;;
20705;SDS011;10514;49.468;11.044;2023-01-29T06:28:54;7.60;;;5.07;;
20705;SDS011;10514;49.468;11.044;2023-01-29T06:31:20;6.93;;;4.57;;
20705;SDS011;10514;49.468;11.044;2023-01-29T06:33:46;8.63;;;5.50;;
20705;SDS011;10514;49.468;11.044;2023-01-29T06:36:12;9.03;;;5.80;;
20705;SDS011;10514;49.468;11.044;2023-01-29T06:38:38;10.33;;;6.97;;
20705;SDS011;10514;49.468;11.044;2023-01-29T06:41:08;13.30;;;7.03;;
20705;SDS011;10514;49.468;11.044;2023-01-29T06:43:34;9.20;;;6.03;;
20705;SDS011;10514;49.468;11.044;2023-01-29T06:46:00;7.77;;;6.03;;
20705;SDS011;10514;49.468;11.044;2023-01-29T06:48:26;9.43;;;6.00;;
20705;SDS011;10514;49.468;11.044;2023-01-29T06:50:52;9.43;;;6.00;;
20705;SDS011;10514;49.468;11.044;2023-01-29T06:53:19;9.73;;;5.40;;
20705;SDS011;10514;49.468;11.044;2023-01-29T06:55:52;7.33;;;5.47;;
20705;SDS011;10514;49.468;11.044;2023-01-29T06:58:18;7.10;;;5.20;;
20705;SDS011;10514;49.468;11.044;2023-01-29T07:00:44;8.80;;;5.77;;
20705;SDS011;10514;49.468;11.044;2023-01-29T07:03:10;8.70;;;5.97;;
20705;SDS011;10514;49.468;11.044;2023-01-29T07:05:36;6.47;;;5.27;;
20705;SDS011;10514;49.468;11.044;2023-01-29T07:08:02;5.80;;;4.87;;
20705;SDS011;10514;49.468;11.044;2023-01-29T07:10:29;6.07;;;5.17;;
20705;SDS011;10514;49.468;11.044;2023-01-29T07:12:54;6.40;;;4.93;;
20705;SDS011;10514;49.468;11.044;2023-01-29T07:15:20;5.50;;;4.83;;
20705;SDS011;10514;49.468;11.044;2023-01-29T07:17:56;6.67;;;5.10;;
20705;SDS011;10514;49.468;11.044;2023-01-29T07:20:23;7.37;;;5.30;;
20705;SDS011;10514;49.468;11.044;2023-01-29T07:22:49;5.90;;;4.90;;
20705;SDS011;10514;49.468;11.044;2023-01-29T07:25:15;7.70;;;5.37;;
20705;SDS011;10514;49.468;11.044;2023-01-29T07:27:41;6.83;;;4.73;;
20705;SDS011;10514;49.468;11.044;2023-01-29T07:30:07;10.17;;;4.87;;
20705;SDS011;10514;49.468;11.044;2023-01-29T07:32:33;8.20;;;6.27;;
20705;SDS011;10514;49.468;11.044;2023-01-29T07:34:59;10.97;;;7.03;;
20705;SDS011;10514;49.468;11.044;2023-01-29T07:37:25;12.43;;;6.70;;
20705;SDS011;10514;49.468;11.044;2023-01-29T07:39:51;7.10;;;5.50;;
20705;SDS011;10514;49.468;11.044;2023-01-29T07:42:17;7.23;;;4.93;;
20705;SDS011;10514;49.468;11.044;2023-01-29T07:44:43;7.07;;;4.70;;
20705;SDS011;10514;49.468;11.044;2023-01-29T07:47:09;9.07;;;5.33;;
20705;SDS011;10514;49.468;11.044;2023-01-29T07:49:35;6.87;;;4.70;;
20705;SDS011;10514;49.468;11.044;2023-01-29T07:52:01;6.27;;;4.07;;
20705;SDS011;10514;49.468;11.044;2023-01-29T07:54:27;8.80;;;5.20;;
20705;SDS011;10514;49.468;11.044;2023-01-29T07:56:52;6.20;;;4.50;;
20705;SDS011;10514;49.468;11.044;2023-01-29T07:59:18;5.97;;;4.40;;
20705;SDS011;10514;49.468;11.044;2023-01-29T08:01:44;5.27;;;4.77;;
20705;SDS011;10514;49.468;11.044;2023-01-29T08:04:10;7.90;;;5.70;;
20705;SDS011;10514;49.468;11.044;2023-01-29T08:06:36;6.87;;;4.73;;
20705;SDS011;10514;49.468;11.044;2023-01-29T08:09:02;12.87;;;5.93;;
20705;SDS011;10514;49.468;11.044;2023-01-29T08:11:28;6.93;;;5.50;;
20705;SDS011;10514;49.468;11.044;2023-01-29T08:13:54;10.00;;;6.53;;
20705;SDS011;10514;49.468;11.044;2023-01-29T08:16:21;9.20;;;5.80;;
20705;SDS011;10514;49.468;11.044;2023-01-29T08:18:47;6.77;;;5.27;;
20705;SDS011;10514;49.468;11.044;2023-01-29T08:21:13;8.30;;;6.27;;
20705;SDS011;10514;49.468;11.044;2023-01-29T08:23:39;6.50;;;5.40;;
20705;SDS011;10514;49.468;11.044;2023-01-29T08:26:05;6.77;;;5.60;;
20705;SDS011;10514;49.468;11.044;2023-01-29T08:28:31;7.77;;;6.13;;
20705;SDS011;10514;49.468;11.044;2023-01-29T08:30:57;6.83;;;5.50;;
20705;SDS011;10514;49.468;11.044;2023-01-29T08:33:23;6.83;;;5.47;;
20705;SDS011;10514;49.468;11.044;2023-01-29T08:35:51;7.57;;;5.60;;
20705;SDS011;10514;49.468;11.044;2023-01-29T08:38:17;6.60;;;5.17;;
20705;SDS011;10514;49.468;11.044;2023-01-29T08:40:43;10.07;;;7.00;;
20705;SDS011;10514;49.468;11.044;2023-01-29T08:43:09;13.43;;;8.33;;
20705;SDS011;10514;49.468;11.044;2023-01-29T08:45:37;10.70;;;6.80;;
20705;SDS011;10514;49.468;11.044;2023-01-29T08:48:04;12.03;;;7.67;;
20705;SDS011;10514;49.468;11.044;2023-01-29T08:50:30;20.47;;;11.37;;
20705;SDS011;10514;49.468;11.044;2023-01-29T08:52:58;13.07;;;8.03;;
20705;SDS011;10514;49.468;11.044;2023-01-29T08:55:25;11.37;;;6.50;;
20705;SDS011;10514;49.468;11.044;2023-01-29T08:57:51;8.20;;;6.40;;
20705;SDS011;10514;49.468;11.044;2023-01-29T09:00:17;10.10;;;7.03;;
20705;SDS011;10514;49.468;11.044;2023-01-29T09:02:43;7.43;;;5.97;;
20705;SDS011;10514;49.468;11.044;2023-01-29T09:05:09;8.17;;;5.47;;
20705;SDS011;10514;49.468;11.044;2023-01-29T09:07:35;9.20;;;6.80;;
20705;SDS011;10514;49.468;11.044;2023-01-29T09:10:01;7.97;;;6.13;;
20705;SDS011;10514;49.468;11.044;2023-01-29T09:12:27;7.97;;;6.03;;
20705;SDS011;10514;49.468;11.044;2023-01-29T09:14:53;8.30;;;5.90;;
20705;SDS011;10514;49.468;11.044;2023-01-29T09:17:18;9.30;;;5.70;;
20705;SDS011;10514;49.468;11.044;2023-01-29T09:19:44;14.57;;;6.30;;
20705;SDS011;10514;49.468;11.044;2023-01-29T09:22:10;8.17;;;5.97;;
20705;SDS011;10514;49.468;11.044;2023-01-29T09:24:36;9.77;;;5.67;;
20705;SDS011;10514;49.468;11.044;2023-01-29T09:27:02;10.17;;;7.80;;
20705;SDS011;10514;49.468;11.044;2023-01-29T09:29:29;9.87;;;8.03;;
20705;SDS011;10514;49.468;11.044;2023-01-29T09:31:55;7.73;;;6.07;;
20705;SDS011;10514;49.468;11.044;2023-01-29T09:34:21;7.03;;;5.73;;
20705;SDS011;10514;49.468;11.044;2023-01-29T09:36:47;7.40;;;6.27;;
20705;SDS011;10514;49.468;11.044;2023-01-29T09:39:12;10.03;;;7.27;;
20705;SDS011;10514;49.468;11.044;2023-01-29T09:41:44;11.67;;;5.60;;
20705;SDS011;10514;49.468;11.044;2023-01-29T09:46:57;13.83;;;9.27;;
20705;SDS011;10514;49.468;11.044;2023-01-29T09:49:25;19.80;;;10.50;;
20705;SDS011;10514;49.468;11.044;2023-01-29T09:52:01;10.03;;;7.30;;
20705;SDS011;10514;49.468;11.044;2023-01-29T09:57:29;11.43;;;7.17;;
20705;SDS011;10514;49.468;11.044;2023-01-29T09:59:58;8.13;;;5.97;;
20705;SDS011;10514;49.468;11.044;2023-01-29T10:05:05;8.53;;;6.33;;
20705;SDS011;10514;49.468;11.044;2023-01-29T10:10:49;9.87;;;6.33;;
20705;SDS011;10514;49.468;11.044;2023-01-29T10:13:27;7.57;;;5.13;;
20705;SDS011;10514;49.468;11.044;2023-01-29T10:16:07;8.87;;;5.57;;
20705;SDS011;10514;49.468;11.044;2023-01-29T10:21:24;7.53;;;5.83;;
20705;SDS011;10514;49.468;11.044;2023-01-29T10:26:47;9.47;;;6.00;;
20705;SDS011;10514;49.468;11.044;2023-01-29T10:29:15;8.47;;;5.40;;
20705;SDS011;10514;49.468;11.044;2023-01-29T10:31:42;7.93;;;5.47;;
20705;SDS011;10514;49.468;11.044;2023-01-29T10:34:13;7.43;;;5.80;;
20705;SDS011;10514;49.468;11.044;2023-01-29T10:36:42;7.47;;;5.67;;
20705;SDS011;10514;49.468;11.044;2023-01-29T10:39:16;7.07;;;5.77;;
20705;SDS011;10514;49.468;11.044;2023-01-29T10:44:37;8.70;;;5.30;;
20705;SDS011;10514;49.468;11.044;2023-01-29T10:52:55;7.57;;;5.47;;
20705;SDS011;10514;49.468;11.044;2023-01-29T10:55:30;8.63;;;6.27;;
20705;SDS011;10514;49.468;11.044;2023-01-29T11:00:43;7.03;;;5.57;;
20705;SDS011;10514;49.468;11.044;2023-01-29T11:03:16;6.50;;;5.43;;
20705;SDS011;10514;49.468;11.044;2023-01-29T11:08:28;6.53;;;5.23;;
20705;SDS011;10514;49.468;11.044;2023-01-29T11:13:53;8.67;;;6.30;;
20705;SDS011;10514;49.468;11.044;2023-01-29T11:16:21;9.67;;;6.07;;
20705;SDS011;10514;49.468;11.044;2023-01-29T11:18:51;13.40;;;5.63;;
20705;SDS011;10514;49.468;11.044;2023-01-29T11:21:17;10.33;;;6.37;;
20705;SDS011;10514;49.468;11.044;2023-01-29T11:23:43;7.23;;;5.67;;
20705;SDS011;10514;49.468;11.044;2023-01-29T11:26:10;7.57;;;5.80;;
20705;SDS011;10514;49.468;11.044;2023-01-29T11:28:44;8.43;;;5.77;;
20705;SDS011;10514;49.468;11.044;2023-01-29T11:31:26;9.40;;;6.30;;
20705;SDS011;10514;49.468;11.044;2023-01-29T11:34:01;6.67;;;5.40;;
20705;SDS011;10514;49.468;11.044;2023-01-29T11:36:33;8.20;;;6.03;;
20705;SDS011;10514;49.468;11.044;2023-01-29T11:41:44;6.90;;;5.63;;
20705;SDS011;10514;49.468;11.044;2023-01-29T11:49:40;8.13;;;6.10;;
20705;SDS011;10514;49.468;11.044;2023-01-29T11:52:09;8.93;;;6.17;;
20705;SDS011;10514;49.468;11.044;2023-01-29T11:54:42;9.13;;;6.13;;
20705;SDS011;10514;49.468;11.044;2023-01-29T11:57:19;12.03;;;6.43;;
20705;SDS011;10514;49.468;11.044;2023-01-29T11:59:48;9.03;;;7.40;;
20705;SDS011;10514;49.468;11.044;2023-01-29T12:02:19;9.07;;;5.27;;
20705;SDS011;10514;49.468;11.044;2023-01-29T12:04:47;8.10;;;6.30;;
20705;SDS011;10514;49.468;11.044;2023-01-29T12:07:14;8.77;;;6.37;;
20705;SDS011;10514;49.468;11.044;2023-01-29T12:09:44;10.30;;;6.97;;
20705;SDS011;10514;49.468;11.044;2023-01-29T12:14:52;8.30;;;5.83;;
20705;SDS011;10514;49.468;11.044;2023-01-29T12:17:27;8.20;;;6.80;;
20705;SDS011;10514;49.468;11.044;2023-01-29T12:19:54;9.00;;;6.17;;
20705;SDS011;10514;49.468;11.044;2023-01-29T12:22:26;8.27;;;6.07;;
20705;SDS011;10514;49.468;11.044;2023-01-29T12:27:31;7.77;;;6.30;;
20705;SDS011;10514;49.468;11.044;2023-01-29T12:30:03;9.30;;;6.27;;
20705;SDS011;10514;49.468;11.044;2023-01-29T12:35:11;12.20;;;5.77;;
20705;SDS011;10514;49.468;11.044;2023-01-29T12:37:59;6.97;;;5.50;;
20705;SDS011;10514;49.468;11.044;2023-01-29T12:40:44;6.90;;;5.67;;
20705;SDS011;10514;49.468;11.044;2023-01-29T12:43:13;8.40;;;6.23;;
20705;SDS011;10514;49.468;11.044;2023-01-29T12:45:40;8.80;;;6.73;;
20705;SDS011;10514;49.468;11.044;2023-01-29T12:48:09;13.37;;;6.47;;
20705;SDS011;10514;49.468;11.044;2023-01-29T12:50:36;10.00;;;6.67;;
20705;SDS011;10514;49.468;11.044;2023-01-29T12:53:11;7.07;;;5.73;;
20705;SDS011;10514;49.468;11.044;2023-01-29T12:58:15;15.20;;;7.57;;
20705;SDS011;10514;49.468;11.044;2023-01-29T13:00:42;20.47;;;9.07;;
20705;SDS011;10514;49.468;11.044;2023-01-29T13:03:13;11.83;;;7.37;;
20705;SDS011;10514;49.468;11.044;2023-01-29T13:08:31;8.43;;;6.07;;
20705;SDS011;10514;49.468;11.044;2023-01-29T13:11:39;13.63;;;8.13;;
20705;SDS011;10514;49.468;11.044;2023-01-29T13:14:02;9.70;;;6.37;;
20705;SDS011;10514;49.468;11.044;2023-01-29T13:16:32;7.83;;;5.60;;
20705;SDS011;10514;49.468;11.044;2023-01-29T13:19:05;8.80;;;5.87;;
20705;SDS011;10514;49.468;11.044;2023-01-29T13:21:53;9.87;;;5.30;;
20705;SDS011;10514;49.468;11.044;2023-01-29T13:24:20;9.83;;;5.87;;
20705;SDS011;10514;49.468;11.044;2023-01-29T13:26:47;8.40;;;5.03;;
20705;SDS011;10514;49.468;11.044;2023-01-29T13:29:23;8.80;;;5.50;;
20705;SDS011;10514;49.468;11.044;2023-01-29T13:31:50;8.67;;;5.60;;
20705;SDS011;10514;49.468;11.044;2023-01-29T13:34:24;8.27;;;6.00;;
20705;SDS011;10514;49.468;11.044;2023-01-29T13:39:37;7.37;;;5.20;;
20705;SDS011;10514;49.468;11.044;2023-01-29T13:42:14;9.10;;;5.90;;
20705;SDS011;10514;49.468;11.044;2023-01-29T13:44:41;8.27;;;5.90;;
20705;SDS011;10514;49.468;11.044;2023-01-29T13:47:19;6.40;;;4.93;;
20705;SDS011;10514;49.468;11.044;2023-01-29T13:50:25;8.37;;;5.77;;
20705;SDS011;10514;49.468;11.044;2023-01-29T13:52:43;9.17;;;5.27;;
20705;SDS011;10514;49.468;11.044;2023-01-29T14:02:45;6.63;;;4.83;;
20705;SDS011;10514;49.468;11.044;2023-01-29T14:10:25;6.73;;;4.87;;
20705;SDS011;10514;49.468;11.044;2023-01-29T14:13:37;6.57;;;5.40;;
20705;SDS011;10514;49.468;11.044;2023-01-29T14:15:37;11.27;;;4.90;;
20705;SDS011;10514;49.468;11.044;2023-01-29T14:20:40;7.60;;;5.07;;
20705;SDS011;10514;49.468;11.044;2023-01-29T14:23:20;7.37;;;5.43;;
20705;SDS011;10514;49.468;11.044;2023-01-29T14:25:47;6.40;;;5.03;;
20705;SDS011;10514;49.468;11.044;2023-01-29T14:28:14;6.07;;;4.40;;
20705;SDS011;10514;49.468;11.044;2023-01-29T14:30:44;6.63;;;4.93;;
20705;SDS011;10514;49.468;11.044;2023-01-29T14:33:26;6.90;;;4.70;;
20705;SDS011;10514;49.468;11.044;2023-01-29T14:35:53;6.40;;;4.70;;
20705;SDS011;10514;49.468;11.044;2023-01-29T14:38:20;6.97;;;4.97;;
20705;SDS011;10514;49.468;11.044;2023-01-29T14:40:48;7.53;;;5.07;;
20705;SDS011;10514;49.468;11.044;2023-01-29T14:43:15;6.67;;;5.03;;
20705;SDS011;10514;49.468;11.044;2023-01-29T14:45:46;6.37;;;4.70;;
20705;SDS011;10514;49.468;11.044;2023-01-29T14:48:34;5.63;;;3.87;;
20705;SDS011;10514;49.468;11.044;2023-01-29T14:51:09;5.67;;;4.73;;
20705;SDS011;10514;49.468;11.044;2023-01-29T14:56:41;8.03;;;4.80;;
20705;SDS011;10514;49.468;11.044;2023-01-29T15:01:37;15.20;;;4.70;;
20705;SDS011;10514;49.468;11.044;2023-01-29T15:04:04;7.10;;;5.07;;
20705;SDS011;10514;49.468;11.044;2023-01-29T15:06:41;8.47;;;4.50;;
20705;SDS011;10514;49.468;11.044;2023-01-29T15:12:01;5.97;;;4.53;;
20705;SDS011;10514;49.468;11.044;2023-01-29T15:14:30;7.00;;;4.97;;
20705;SDS011;10514;49.468;11.044;2023-01-29T15:19:46;6.97;;;5.07;;
20705;SDS011;10514;49.468;11.044;2023-01-29T15:22:13;6.37;;;4.33;;
20705;SDS011;10514;49.468;11.044;2023-01-29T15:24:40;5.73;;;4.10;;
20705;SDS011;10514;49.468;11.044;2023-01-29T15:27:12;7.10;;;5.40;;
20705;SDS011;10514;49.468;11.044;2023-01-29T15:29:39;9.07;;;5.53;;
20705;SDS011;10514;49.468;11.044;2023-01-29T15:32:06;7.83;;;5.17;;
20705;SDS011;10514;49.468;11.044;2023-01-29T15:34:32;7.93;;;5.43;;
20705;SDS011;10514;49.468;11.044;2023-01-29T15:36:59;9.27;;;5.50;;
20705;SDS011;10514;49.468;11.044;2023-01-29T15:39:24;9.53;;;5.43;;
20705;SDS011;10514;49.468;11.044;2023-01-29T15:42:03;7.80;;;5.77;;
20705;SDS011;10514;49.468;11.044;2023-01-29T15:44:30;10.13;;;5.47;;
20705;SDS011;10514;49.468;11.044;2023-01-29T15:46:57;7.17;;;5.33;;
20705;SDS011;10514;49.468;11.044;2023-01-29T15:49:25;9.30;;;5.33;;
20705;SDS011;10514;49.468;11.044;2023-01-29T15:51:54;9.43;;;5.33;;
20705;SDS011;10514;49.468;11.044;2023-01-29T15:54:22;7.03;;;5.00;;
20705;SDS011;10514;49.468;11.044;2023-01-29T15:56:49;6.47;;;4.87;;
20705;SDS011;10514;49.468;11.044;2023-01-29T15:59:17;7.43;;;5.10;;
20705;SDS011;10514;49.468;11.044;2023-01-29T16:01:43;8.00;;;5.40;;
20705;SDS011;10514;49.468;11.044;2023-01-29T16:04:14;8.17;;;5.43;;
20705;SDS011;10514;49.468;11.044;2023-01-29T16:06:41;8.40;;;5.80;;
20705;SDS011;10514;49.468;11.044;2023-01-29T16:09:09;9.40;;;5.63;;
20705;SDS011;10514;49.468;11.044;2023-01-29T16:11:39;8.80;;;5.87;;
20705;SDS011;10514;49.468;11.044;2023-01-29T16:14:05;8.47;;;5.80;;
20705;SDS011;10514;49.468;11.044;2023-01-29T16:16:31;12.30;;;6.73;;
20705;SDS011;10514;49.468;11.044;2023-01-29T16:18:57;6.70;;;5.00;;
20705;SDS011;10514;49.468;11.044;2023-01-29T16:21:31;9.27;;;6.17;;
20705;SDS011;10514;49.468;11.044;2023-01-29T16:24:00;11.73;;;6.20;;
20705;SDS011;10514;49.468;11.044;2023-01-29T16:26:27;9.50;;;6.77;;
20705;SDS011;10514;49.468;11.044;2023-01-29T16:28:53;10.10;;;6.03;;
20705;SDS011;10514;49.468;11.044;2023-01-29T16:31:21;10.13;;;6.17;;
20705;SDS011;10514;49.468;11.044;2023-01-29T16:33:48;8.80;;;6.23;;
20705;SDS011;10514;49.468;11.044;2023-01-29T16:36:19;11.07;;;6.13;;
20705;SDS011;10514;49.468;11.044;2023-01-29T16:38:46;13.90;;;6.67;;
20705;SDS011;10514;49.468;11.044;2023-01-29T16:41:26;9.63;;;5.87;;
20705;SDS011;10514;49.468;11.044;2023-01-29T16:51:49;11.10;;;7.10;;
20705;SDS011;10514;49.468;11.044;2023-01-29T16:54:15;12.27;;;7.47;;
20705;SDS011;10514;49.468;11.044;2023-01-29T16:56:44;10.60;;;6.57;;
20705;SDS011;10514;49.468;11.044;2023-01-29T16:59:18;10.27;;;7.00;;